createdAt,value
2022-12-12T00:01:29.335Z,100941.22
2022-12-12T00:06:31.447Z,100944.78
2022-12-12T00:11:33.229Z,100944.81
2022-12-12T00:16:34.853Z,100937.50
2022-12-12T00:21:36.532Z,100947.50
2022-12-12T00:26:38.399Z,100954.44
2022-12-12T00:31:40.361Z,100963.28
2022-12-12T00:36:42.096Z,100958.97
2022-12-12T00:41:44.028Z,100958.50
2022-12-12T00:46:45.705Z,100954.41
2022-12-12T00:51:47.491Z,100952.19
2022-12-12T00:56:49.157Z,100956.28
2022-12-12T01:01:54.359Z,100958.72
2022-12-12T01:06:56.047Z,100956.91
2022-12-12T01:11:57.700Z,100959.59
2022-12-12T01:16:59.337Z,100957.25
2022-12-12T01:22:00.948Z,100964.03
2022-12-12T01:27:02.788Z,100961.44
2022-12-12T01:32:04.698Z,100974.66
2022-12-12T01:37:06.411Z,100977.38
2022-12-12T01:42:13.928Z,100977.88
2022-12-12T01:47:18.554Z,100971.19
2022-12-12T01:52:26.787Z,100979.22
2022-12-12T01:57:39.623Z,100983.44
2022-12-12T02:02:44.383Z,100980.84
2022-12-12T02:07:46.325Z,100983.16
2022-12-12T02:12:48.159Z,100989.31
2022-12-12T02:18:26.596Z,100997.75
2022-12-12T02:23:51.378Z,100998.47
2022-12-12T02:29:25.852Z,100996.50
2022-12-12T02:34:54.039Z,101001.28
2022-12-12T02:40:09.422Z,101006.75
2022-12-12T02:45:27.886Z,101010.09
2022-12-12T02:50:31.788Z,101006.56
2022-12-12T02:55:36.411Z,101014.22
2022-12-12T03:01:11.130Z,101008.03
2022-12-12T03:06:48.610Z,101007.41
2022-12-12T03:12:13.138Z,101001.75
2022-12-12T03:17:39.168Z,101008.34
2022-12-12T03:22:50.528Z,101011.38
2022-12-12T03:28:08.643Z,101022.56
2022-12-12T03:33:26.283Z,101009.69
2022-12-12T03:38:36.070Z,101020.06
2022-12-12T03:43:44.545Z,101020.06
2022-12-12T03:49:01.111Z,101018.75
2022-12-12T03:54:17.032Z,101019.84
2022-12-12T03:59:27.518Z,101019.41
2022-12-12T04:04:39.292Z,101016.91
2022-12-12T04:10:00.394Z,101025.41
2022-12-12T04:15:34.655Z,101019.06
2022-12-12T04:21:16.989Z,101033.84
2022-12-12T04:26:41.994Z,101031.38
2022-12-12T04:32:25.841Z,101035.56
2022-12-12T04:37:32.964Z,101027.16
2022-12-12T04:42:41.783Z,101033.34
2022-12-12T04:47:48.252Z,101041.47
2022-12-12T04:52:53.239Z,101047.97
2022-12-12T04:57:55.918Z,101042.16
2022-12-12T05:03:18.165Z,101044.47
2022-12-12T05:08:29.344Z,101036.78
2022-12-12T05:13:33.673Z,101041.94
2022-12-12T05:18:35.267Z,101047.34
2022-12-12T05:23:36.951Z,101043.16
2022-12-12T05:28:38.734Z,101041.19
2022-12-12T05:33:40.584Z,101041.97
2022-12-12T05:38:42.719Z,101050.84
2022-12-12T05:43:44.316Z,101045.25
2022-12-12T05:48:50.911Z,101049.47
2022-12-12T05:53:52.700Z,101047.34
2022-12-12T05:58:54.303Z,101055.19
2022-12-12T06:03:56.040Z,101061.53
2022-12-12T06:08:57.994Z,101068.59
2022-12-12T06:13:59.699Z,101070.72
2022-12-12T06:19:01.773Z,101070.25
2022-12-12T06:24:05.999Z,101079.97
2022-12-12T06:29:07.807Z,101077.13
2022-12-12T06:34:09.383Z,101073.44
2022-12-12T06:39:11.050Z,101078.84
2022-12-12T06:44:12.837Z,101086.13
2022-12-12T06:49:14.575Z,101088.31
2022-12-12T06:54:18.413Z,101096.28
2022-12-12T06:59:20.204Z,101098.34
2022-12-12T07:04:22.181Z,101100.25
2022-12-12T07:09:24.005Z,101102.47
2022-12-12T07:14:25.769Z,101109.19
2022-12-12T07:19:27.523Z,101107.81
2022-12-12T07:24:29.393Z,101119.88
2022-12-12T07:29:30.970Z,101123.66
2022-12-12T07:34:32.660Z,101117.69
2022-12-12T07:39:34.432Z,101129.81
2022-12-12T07:44:36.123Z,101130.38
2022-12-12T07:49:37.777Z,101134.47
2022-12-12T07:54:39.769Z,101137.50
2022-12-12T07:59:41.534Z,101137.59
2022-12-12T08:04:43.343Z,101142.50
2022-12-12T08:09:45.117Z,101136.28
2022-12-12T08:14:46.950Z,101140.75
2022-12-12T08:19:48.689Z,101145.53
2022-12-12T08:24:50.395Z,101145.94
2022-12-12T08:29:53.330Z,101155.69
2022-12-12T08:34:58.825Z,101161.34
2022-12-12T08:40:00.644Z,101160.78
2022-12-12T08:45:02.408Z,101162.47
2022-12-12T08:50:06.857Z,101167.38
2022-12-12T08:55:08.824Z,101174.66
2022-12-12T09:00:11.237Z,101162.03
2022-12-12T09:05:13.211Z,101159.34
2022-12-12T09:10:15.075Z,101162.88
2022-12-12T09:15:17.360Z,101160.34
2022-12-12T09:20:19.229Z,101163.66
2022-12-12T09:25:22.034Z,101160.00
2022-12-12T09:30:23.805Z,101165.03
2022-12-12T09:35:25.616Z,101170.97
2022-12-12T09:40:34.430Z,101165.59
2022-12-12T09:45:37.899Z,101170.81
2022-12-12T09:50:45.960Z,101162.63
2022-12-12T09:56:08.844Z,101162.97
2022-12-12T10:01:26.006Z,101175.00
2022-12-12T10:06:39.841Z,101167.53
2022-12-12T10:11:51.852Z,101172.78
2022-12-12T10:16:58.206Z,101173.97
2022-12-12T10:22:06.257Z,101167.59
2022-12-12T10:27:13.278Z,101161.22
2022-12-12T10:32:41.236Z,101160.25
2022-12-12T10:37:59.181Z,101150.59
2022-12-12T10:43:24.271Z,101145.84
2022-12-12T10:48:27.913Z,101149.22
2022-12-12T10:53:32.060Z,101147.47
2022-12-12T10:58:38.509Z,101142.38
2022-12-12T11:03:46.874Z,101143.78
2022-12-12T11:08:58.581Z,101131.78
2022-12-12T11:14:02.916Z,101129.81
2022-12-12T11:19:26.280Z,101123.31
2022-12-12T11:24:31.844Z,101128.50
2022-12-12T11:29:41.112Z,101125.44
2022-12-12T11:34:55.791Z,101127.28
2022-12-12T11:39:57.757Z,101126.34
2022-12-12T11:45:23.835Z,101131.63
2022-12-12T11:50:28.336Z,101129.56
2022-12-12T11:55:45.181Z,101121.44
2022-12-12T12:01:23.700Z,101127.22
2022-12-12T12:06:37.337Z,101130.31
2022-12-12T12:11:57.396Z,101117.44
2022-12-12T12:17:15.741Z,101118.19
2022-12-12T12:22:54.583Z,101124.91
2022-12-12T12:28:04.848Z,101123.19
2022-12-12T12:33:24.604Z,101129.66
2022-12-12T12:38:55.721Z,101113.47
2022-12-12T12:44:06.711Z,101110.25
2022-12-12T12:49:23.029Z,101108.06
2022-12-12T12:54:33.098Z,101108.22
2022-12-12T12:59:40.244Z,101112.44
2022-12-12T13:05:07.591Z,101105.25
2022-12-12T13:10:19.526Z,101095.94
2022-12-12T13:15:23.801Z,101100.38
2022-12-12T13:20:26.746Z,101104.13
2022-12-12T13:25:37.169Z,101102.25
2022-12-12T13:31:12.788Z,101113.75
2022-12-12T13:36:30.045Z,101110.59
2022-12-12T13:42:02.171Z,101115.34
2022-12-12T13:47:11.318Z,101120.03
2022-12-12T13:52:30.512Z,101121.31
2022-12-12T13:57:32.411Z,101108.53
2022-12-12T14:02:37.543Z,101104.44
2022-12-12T14:07:47.548Z,101112.28
2022-12-12T14:12:49.439Z,101111.97
2022-12-12T14:18:25.872Z,101107.13
2022-12-12T14:23:41.858Z,101106.28
2022-12-12T14:28:44.052Z,101113.31
2022-12-12T14:33:54.907Z,101119.69
2022-12-12T14:39:28.919Z,101109.94
2022-12-12T14:44:37.085Z,101122.28
2022-12-12T14:49:40.665Z,101128.09
2022-12-12T14:54:43.666Z,101131.09
2022-12-12T14:59:45.346Z,101134.91
2022-12-12T15:04:52.032Z,101132.44
2022-12-12T15:09:53.868Z,101139.66
2022-12-12T15:14:57.134Z,101135.09
2022-12-12T15:20:01.984Z,101134.25
2022-12-12T15:25:18.080Z,101141.03
2022-12-12T15:30:36.965Z,101150.72
2022-12-12T15:35:38.857Z,101156.41
2022-12-12T15:40:43.116Z,101167.81
2022-12-12T15:45:55.177Z,101170.00
2022-12-12T15:51:06.290Z,101166.25
2022-12-12T15:56:14.643Z,101161.00
2022-12-12T16:01:20.428Z,101177.50
2022-12-12T16:06:36.468Z,101172.47
2022-12-12T16:11:45.322Z,101165.50
2022-12-12T16:16:52.196Z,101177.25
2022-12-12T16:21:55.380Z,101155.56
2022-12-12T16:26:59.032Z,101150.22
2022-12-12T16:32:00.726Z,101147.03
2022-12-12T16:37:02.347Z,101155.41
2022-12-12T16:42:04.165Z,101164.50
2022-12-12T16:47:30.167Z,101161.59
2022-12-12T16:52:31.859Z,101161.50
2022-12-12T16:57:33.562Z,101159.34
2022-12-12T17:02:36.371Z,101156.75
2022-12-12T17:07:38.158Z,101154.78
2022-12-12T17:12:39.904Z,101155.13
2022-12-12T17:17:41.641Z,101159.09
2022-12-12T17:22:44.349Z,101149.31
2022-12-12T17:27:46.039Z,101144.88
2022-12-12T17:38:14.455Z,101163.75
2022-12-12T17:43:17.714Z,101159.38
2022-12-12T17:48:19.643Z,101159.63
2022-12-12T17:53:21.342Z,101166.25
2022-12-12T17:58:28.087Z,101173.75
2022-12-12T18:03:32.980Z,101169.13
2022-12-12T18:08:35.723Z,101186.00
2022-12-12T18:13:38.946Z,101155.81
2022-12-12T18:18:41.059Z,101161.44
2022-12-12T18:23:43.465Z,101157.66
2022-12-12T18:28:45.128Z,101168.28
2022-12-12T18:33:48.305Z,101175.63
2022-12-12T18:38:50.896Z,101176.47
2022-12-12T18:43:52.685Z,101169.53
2022-12-12T18:48:54.560Z,101168.91
2022-12-12T18:54:02.472Z,101169.13
2022-12-12T18:59:04.249Z,101185.81
2022-12-12T19:04:11.705Z,101178.22
2022-12-12T19:09:17.201Z,101175.22
2022-12-12T19:14:19.017Z,101170.44
2022-12-12T19:19:21.136Z,101172.06
2022-12-12T19:24:22.777Z,101168.25
2022-12-12T19:29:24.518Z,101172.38
2022-12-12T19:34:26.406Z,101178.88
2022-12-12T19:39:28.574Z,101190.25
2022-12-12T19:44:30.239Z,101182.16
2022-12-12T19:49:32.023Z,101182.56
2022-12-12T19:54:33.762Z,101187.34
2022-12-12T19:59:35.576Z,101186.34
2022-12-12T20:04:39.398Z,101185.81
2022-12-12T20:09:41.105Z,101184.75
2022-12-12T20:14:42.798Z,101180.50
2022-12-12T20:19:47.323Z,101174.97
2022-12-12T20:24:48.976Z,101176.28
2022-12-12T20:29:50.893Z,101187.81
2022-12-12T20:34:53.070Z,101186.34
2022-12-12T20:39:54.819Z,101190.16
2022-12-12T20:44:56.611Z,101195.25
2022-12-12T20:50:00.104Z,101199.13
2022-12-12T20:55:01.774Z,101192.41
2022-12-12T21:00:04.761Z,101192.72
2022-12-12T21:05:08.585Z,101198.38
2022-12-12T21:10:10.477Z,101194.47
2022-12-12T21:15:12.195Z,101196.38
2022-12-12T21:20:13.971Z,101206.38
2022-12-12T21:25:16.039Z,101195.66
2022-12-12T21:30:19.931Z,101193.19
2022-12-12T21:35:21.752Z,101195.97
2022-12-12T21:40:24.731Z,101184.84
2022-12-12T21:45:26.584Z,101185.03
2022-12-12T21:50:30.923Z,101185.56
2022-12-12T21:55:36.889Z,101178.88
2022-12-12T22:00:40.183Z,101182.66
2022-12-12T22:05:42.042Z,101186.56
2022-12-12T22:10:44.269Z,101189.25
2022-12-12T22:15:57.815Z,101193.50
2022-12-12T22:21:04.383Z,101196.53
2022-12-12T22:26:17.394Z,101187.22
2022-12-12T22:31:20.779Z,101194.25
2022-12-12T22:36:26.630Z,101197.94
2022-12-12T22:41:29.486Z,101197.63
2022-12-12T22:46:43.524Z,101190.44
2022-12-12T22:51:50.426Z,101188.69
2022-12-12T22:56:52.627Z,101187.53
2022-12-12T23:01:54.330Z,101189.38
2022-12-12T23:06:56.443Z,101187.75
2022-12-12T23:11:59.345Z,101182.66
2022-12-12T23:17:03.689Z,101177.00
2022-12-12T23:22:05.750Z,101173.53
2022-12-12T23:27:08.548Z,101181.16
2022-12-12T23:32:11.433Z,101178.78
2022-12-12T23:37:13.464Z,101165.22
2022-12-12T23:42:17.367Z,101176.06
2022-12-12T23:47:19.015Z,101170.75
2022-12-12T23:52:20.681Z,101174.78
2022-12-12T23:57:22.519Z,101172.38
